sensor_id;sensor_type;location;lat;lon;timestamp;P1;durP1;ratioP1;P2;durP2;ratioP2
57822;SDS011;43650;48.064;20.624;2022-12-18T00:00:42;14.23;;;6.27;;
57822;SDS011;43650;48.064;20.624;2022-12-18T00:01:42;13.05;;;6.57;;
57822;SDS011;43650;48.064;20.624;2022-12-18T00:02:43;28.10;;;12.07;;
57822;SDS011;43650;48.064;20.624;2022-12-18T00:03:43;90.50;;;33.13;;
57822;SDS011;43650;48.064;20.624;2022-12-18T00:04:44;62.83;;;23.70;;
57822;SDS011;43650;48.064;20.624;2022-12-18T00:05:48;23.73;;;9.45;;
57822;SDS011;43650;48.064;20.624;2022-12-18T00:06:49;19.40;;;7.25;;
57822;SDS011;43650;48.064;20.624;2022-12-18T00:07:50;20.55;;;7.82;;
57822;SDS011;43650;48.064;20.624;2022-12-18T00:08:50;19.93;;;9.13;;
57822;SDS011;43650;48.064;20.624;2022-12-18T00:09:51;15.87;;;7.23;;
57822;SDS011;43650;48.064;20.624;2022-12-18T00:10:51;17.77;;;6.43;;
57822;SDS011;43650;48.064;20.624;2022-12-18T00:11:52;24.03;;;7.33;;
57822;SDS011;43650;48.064;20.624;2022-12-18T00:12:52;26.37;;;8.00;;
57822;SDS011;43650;48.064;20.624;2022-12-18T00:13:54;19.50;;;7.57;;
57822;SDS011;43650;48.064;20.624;2022-12-18T00:14:55;16.35;;;7.47;;
57822;SDS011;43650;48.064;20.624;2022-12-18T00:15:55;13.13;;;5.80;;
57822;SDS011;43650;48.064;20.624;2022-12-18T00:16:55;15.60;;;5.70;;
57822;SDS011;43650;48.064;20.624;2022-12-18T00:17:58;14.80;;;5.60;;
57822;SDS011;43650;48.064;20.624;2022-12-18T00:18:58;17.80;;;6.77;;
57822;SDS011;43650;48.064;20.624;2022-12-18T00:19:59;13.25;;;6.05;;
57822;SDS011;43650;48.064;20.624;2022-12-18T00:21:00;16.17;;;6.43;;
57822;SDS011;43650;48.064;20.624;2022-12-18T00:22:02;15.48;;;6.60;;
57822;SDS011;43650;48.064;20.624;2022-12-18T00:23:03;17.40;;;6.10;;
57822;SDS011;43650;48.064;20.624;2022-12-18T00:24:03;13.60;;;5.97;;
57822;SDS011;43650;48.064;20.624;2022-12-18T00:25:04;13.18;;;5.68;;
57822;SDS011;43650;48.064;20.624;2022-12-18T00:26:06;18.53;;;6.47;;
57822;SDS011;43650;48.064;20.624;2022-12-18T00:27:08;17.42;;;5.40;;
57822;SDS011;43650;48.064;20.624;2022-12-18T00:28:08;14.07;;;6.73;;
57822;SDS011;43650;48.064;20.624;2022-12-18T00:29:12;15.73;;;7.17;;
57822;SDS011;43650;48.064;20.624;2022-12-18T00:30:16;11.95;;;5.12;;
57822;SDS011;43650;48.064;20.624;2022-12-18T00:31:18;16.70;;;6.43;;
57822;SDS011;43650;48.064;20.624;2022-12-18T00:32:20;12.93;;;5.72;;
57822;SDS011;43650;48.064;20.624;2022-12-18T00:33:21;11.17;;;5.50;;
57822;SDS011;43650;48.064;20.624;2022-12-18T00:34:21;15.10;;;5.50;;
57822;SDS011;43650;48.064;20.624;2022-12-18T00:35:21;12.83;;;4.93;;
57822;SDS011;43650;48.064;20.624;2022-12-18T00:36:23;11.90;;;5.33;;
57822;SDS011;43650;48.064;20.624;2022-12-18T00:37:25;11.02;;;4.97;;
57822;SDS011;43650;48.064;20.624;2022-12-18T00:38:26;10.37;;;4.60;;
57822;SDS011;43650;48.064;20.624;2022-12-18T00:39:26;12.60;;;4.90;;
57822;SDS011;43650;48.064;20.624;2022-12-18T00:40:27;13.40;;;5.67;;
57822;SDS011;43650;48.064;20.624;2022-12-18T00:41:27;13.23;;;5.67;;
57822;SDS011;43650;48.064;20.624;2022-12-18T00:42:46;10.98;;;4.75;;
57822;SDS011;43650;48.064;20.624;2022-12-18T00:43:56;12.37;;;5.70;;
57822;SDS011;43650;48.064;20.624;2022-12-18T00:44:56;16.47;;;6.23;;
57822;SDS011;43650;48.064;20.624;2022-12-18T00:45:57;13.43;;;5.77;;
57822;SDS011;43650;48.064;20.624;2022-12-18T00:46:57;15.63;;;5.60;;
57822;SDS011;43650;48.064;20.624;2022-12-18T00:47:57;14.47;;;6.77;;
57822;SDS011;43650;48.064;20.624;2022-12-18T00:48:58;12.70;;;5.13;;
57822;SDS011;43650;48.064;20.624;2022-12-18T00:49:58;15.40;;;5.53;;
57822;SDS011;43650;48.064;20.624;2022-12-18T00:50:59;15.53;;;5.50;;
57822;SDS011;43650;48.064;20.624;2022-12-18T00:51:59;11.93;;;5.37;;
57822;SDS011;43650;48.064;20.624;2022-12-18T00:52:59;18.60;;;8.73;;
57822;SDS011;43650;48.064;20.624;2022-12-18T00:54:00;17.70;;;7.93;;
57822;SDS011;43650;48.064;20.624;2022-12-18T00:55:00;14.47;;;7.33;;
57822;SDS011;43650;48.064;20.624;2022-12-18T00:56:04;22.70;;;9.07;;
57822;SDS011;43650;48.064;20.624;2022-12-18T00:57:05;18.58;;;8.73;;
57822;SDS011;43650;48.064;20.624;2022-12-18T00:58:05;31.47;;;12.87;;
57822;SDS011;43650;48.064;20.624;2022-12-18T00:59:06;25.52;;;11.05;;
57822;SDS011;43650;48.064;20.624;2022-12-18T01:00:08;18.73;;;8.97;;
57822;SDS011;43650;48.064;20.624;2022-12-18T01:01:10;42.40;;;20.48;;
57822;SDS011;43650;48.064;20.624;2022-12-18T01:02:11;38.90;;;17.13;;
57822;SDS011;43650;48.064;20.624;2022-12-18T01:03:14;27.77;;;11.07;;
57822;SDS011;43650;48.064;20.624;2022-12-18T01:04:14;22.10;;;10.65;;
57822;SDS011;43650;48.064;20.624;2022-12-18T01:05:15;22.03;;;11.20;;
57822;SDS011;43650;48.064;20.624;2022-12-18T01:06:16;22.47;;;8.53;;
57822;SDS011;43650;48.064;20.624;2022-12-18T01:07:16;19.12;;;8.55;;
57822;SDS011;43650;48.064;20.624;2022-12-18T01:08:17;16.83;;;8.50;;
57822;SDS011;43650;48.064;20.624;2022-12-18T01:09:17;13.93;;;6.23;;
57822;SDS011;43650;48.064;20.624;2022-12-18T01:10:17;14.80;;;5.53;;
57822;SDS011;43650;48.064;20.624;2022-12-18T01:11:19;14.40;;;5.50;;
57822;SDS011;43650;48.064;20.624;2022-12-18T01:12:19;12.02;;;5.35;;
57822;SDS011;43650;48.064;20.624;2022-12-18T01:13:20;12.93;;;5.63;;
57822;SDS011;43650;48.064;20.624;2022-12-18T01:14:20;11.90;;;4.73;;
57822;SDS011;43650;48.064;20.624;2022-12-18T01:15:21;12.90;;;5.77;;
57822;SDS011;43650;48.064;20.624;2022-12-18T01:16:21;12.87;;;5.30;;
57822;SDS011;43650;48.064;20.624;2022-12-18T01:17:22;13.90;;;6.20;;
57822;SDS011;43650;48.064;20.624;2022-12-18T01:18:23;16.90;;;6.30;;
57822;SDS011;43650;48.064;20.624;2022-12-18T01:19:23;10.87;;;5.83;;
57822;SDS011;43650;48.064;20.624;2022-12-18T01:20:23;13.20;;;5.33;;
57822;SDS011;43650;48.064;20.624;2022-12-18T01:21:24;11.53;;;5.27;;
57822;SDS011;43650;48.064;20.624;2022-12-18T01:22:24;14.17;;;5.90;;
57822;SDS011;43650;48.064;20.624;2022-12-18T01:23:28;11.90;;;5.10;;
57822;SDS011;43650;48.064;20.624;2022-12-18T01:24:28;12.73;;;4.62;;
57822;SDS011;43650;48.064;20.624;2022-12-18T01:25:29;12.93;;;5.60;;
57822;SDS011;43650;48.064;20.624;2022-12-18T01:26:29;10.57;;;5.17;;
57822;SDS011;43650;48.064;20.624;2022-12-18T01:27:30;14.80;;;5.80;;
57822;SDS011;43650;48.064;20.624;2022-12-18T01:28:31;8.65;;;5.00;;
57822;SDS011;43650;48.064;20.624;2022-12-18T01:29:31;15.97;;;6.07;;
57822;SDS011;43650;48.064;20.624;2022-12-18T01:30:32;16.23;;;4.90;;
57822;SDS011;43650;48.064;20.624;2022-12-18T01:31:32;12.30;;;4.83;;
57822;SDS011;43650;48.064;20.624;2022-12-18T01:32:33;12.48;;;4.57;;
57822;SDS011;43650;48.064;20.624;2022-12-18T01:33:34;11.17;;;5.47;;
57822;SDS011;43650;48.064;20.624;2022-12-18T01:34:38;14.93;;;6.67;;
57822;SDS011;43650;48.064;20.624;2022-12-18T01:35:41;12.15;;;5.87;;
57822;SDS011;43650;48.064;20.624;2022-12-18T01:36:42;11.75;;;4.55;;
57822;SDS011;43650;48.064;20.624;2022-12-18T01:37:42;16.60;;;6.40;;
57822;SDS011;43650;48.064;20.624;2022-12-18T01:38:44;14.47;;;5.17;;
57822;SDS011;43650;48.064;20.624;2022-12-18T01:39:45;14.52;;;5.95;;
57822;SDS011;43650;48.064;20.624;2022-12-18T01:40:45;10.63;;;5.30;;
57822;SDS011;43650;48.064;20.624;2022-12-18T01:41:46;12.77;;;5.30;;
57822;SDS011;43650;48.064;20.624;2022-12-18T01:43:02;15.10;;;5.80;;
57822;SDS011;43650;48.064;20.624;2022-12-18T01:44:45;15.63;;;5.87;;
57822;SDS011;43650;48.064;20.624;2022-12-18T01:45:41;12.37;;;5.55;;
57822;SDS011;43650;48.064;20.624;2022-12-18T01:46:42;14.73;;;5.87;;
57822;SDS011;43650;48.064;20.624;2022-12-18T01:47:55;12.23;;;5.37;;
57822;SDS011;43650;48.064;20.624;2022-12-18T01:48:59;13.00;;;5.32;;
57822;SDS011;43650;48.064;20.624;2022-12-18T01:50:02;12.40;;;5.47;;
57822;SDS011;43650;48.064;20.624;2022-12-18T01:51:06;11.50;;;5.50;;
57822;SDS011;43650;48.064;20.624;2022-12-18T01:52:08;11.40;;;5.25;;
57822;SDS011;43650;48.064;20.624;2022-12-18T01:53:16;15.90;;;5.57;;
57822;SDS011;43650;48.064;20.624;2022-12-18T01:54:18;17.55;;;7.05;;
57822;SDS011;43650;48.064;20.624;2022-12-18T01:55:19;14.33;;;7.60;;
57822;SDS011;43650;48.064;20.624;2022-12-18T01:56:22;13.13;;;6.28;;
57822;SDS011;43650;48.064;20.624;2022-12-18T01:57:23;12.30;;;6.00;;
57822;SDS011;43650;48.064;20.624;2022-12-18T01:59:33;16.25;;;6.62;;
57822;SDS011;43650;48.064;20.624;2022-12-18T02:00:35;17.90;;;7.15;;
57822;SDS011;43650;48.064;20.624;2022-12-18T02:01:35;15.60;;;7.47;;
57822;SDS011;43650;48.064;20.624;2022-12-18T02:02:37;16.00;;;7.47;;
57822;SDS011;43650;48.064;20.624;2022-12-18T02:03:42;18.10;;;8.10;;
57822;SDS011;43650;48.064;20.624;2022-12-18T02:04:43;18.60;;;7.47;;
57822;SDS011;43650;48.064;20.624;2022-12-18T02:05:45;16.97;;;7.13;;
57822;SDS011;43650;48.064;20.624;2022-12-18T02:06:50;15.00;;;6.95;;
57822;SDS011;43650;48.064;20.624;2022-12-18T02:08:37;15.10;;;6.75;;
57822;SDS011;43650;48.064;20.624;2022-12-18T02:09:28;17.65;;;7.60;;
57822;SDS011;43650;48.064;20.624;2022-12-18T02:10:42;15.65;;;7.22;;
57822;SDS011;43650;48.064;20.624;2022-12-18T02:13:46;18.40;;;7.35;;
57822;SDS011;43650;48.064;20.624;2022-12-18T02:15:10;18.37;;;8.57;;
57822;SDS011;43650;48.064;20.624;2022-12-18T02:18:01;25.55;;;8.85;;
57822;SDS011;43650;48.064;20.624;2022-12-18T02:20:35;22.95;;;8.70;;
57822;SDS011;43650;48.064;20.624;2022-12-18T02:22:00;19.65;;;8.57;;
57822;SDS011;43650;48.064;20.624;2022-12-18T02:26:15;20.02;;;9.57;;
57822;SDS011;43650;48.064;20.624;2022-12-18T02:27:20;28.48;;;11.55;;
57822;SDS011;43650;48.064;20.624;2022-12-18T02:28:21;21.73;;;9.47;;
57822;SDS011;43650;48.064;20.624;2022-12-18T02:29:44;23.50;;;10.02;;
57822;SDS011;43650;48.064;20.624;2022-12-18T02:30:48;23.80;;;10.60;;
57822;SDS011;43650;48.064;20.624;2022-12-18T02:31:54;20.75;;;9.65;;
57822;SDS011;43650;48.064;20.624;2022-12-18T02:32:56;22.85;;;9.52;;
57822;SDS011;43650;48.064;20.624;2022-12-18T02:33:58;25.10;;;11.07;;
57822;SDS011;43650;48.064;20.624;2022-12-18T02:35:01;26.83;;;11.05;;
57822;SDS011;43650;48.064;20.624;2022-12-18T02:36:03;25.30;;;10.80;;
57822;SDS011;43650;48.064;20.624;2022-12-18T02:37:06;24.92;;;9.35;;
57822;SDS011;43650;48.064;20.624;2022-12-18T02:38:09;26.80;;;11.07;;
57822;SDS011;43650;48.064;20.624;2022-12-18T02:39:10;29.12;;;11.05;;
57822;SDS011;43650;48.064;20.624;2022-12-18T02:40:12;35.90;;;12.23;;
57822;SDS011;43650;48.064;20.624;2022-12-18T02:41:14;30.77;;;11.73;;
57822;SDS011;43650;48.064;20.624;2022-12-18T02:42:14;34.95;;;12.98;;
57822;SDS011;43650;48.064;20.624;2022-12-18T02:43:16;30.62;;;12.75;;
57822;SDS011;43650;48.064;20.624;2022-12-18T02:44:16;38.50;;;11.90;;
57822;SDS011;43650;48.064;20.624;2022-12-18T02:45:17;28.13;;;11.77;;
57822;SDS011;43650;48.064;20.624;2022-12-18T02:47:28;37.78;;;12.55;;
57822;SDS011;43650;48.064;20.624;2022-12-18T02:48:33;28.62;;;11.73;;
57822;SDS011;43650;48.064;20.624;2022-12-18T02:51:37;26.98;;;11.93;;
57822;SDS011;43650;48.064;20.624;2022-12-18T02:53:39;27.05;;;10.98;;
57822;SDS011;43650;48.064;20.624;2022-12-18T02:54:52;30.70;;;12.37;;
57822;SDS011;43650;48.064;20.624;2022-12-18T02:56:11;35.53;;;13.05;;
57822;SDS011;43650;48.064;20.624;2022-12-18T02:57:16;41.40;;;14.70;;
57822;SDS011;43650;48.064;20.624;2022-12-18T02:58:29;38.80;;;13.38;;
57822;SDS011;43650;48.064;20.624;2022-12-18T02:59:39;27.08;;;11.52;;
57822;SDS011;43650;48.064;20.624;2022-12-18T03:00:42;30.23;;;12.77;;
57822;SDS011;43650;48.064;20.624;2022-12-18T03:01:57;33.42;;;12.88;;
57822;SDS011;43650;48.064;20.624;2022-12-18T03:03:07;31.70;;;12.68;;
57822;SDS011;43650;48.064;20.624;2022-12-18T03:04:15;32.58;;;12.70;;
57822;SDS011;43650;48.064;20.624;2022-12-18T03:05:31;33.97;;;14.30;;
57822;SDS011;43650;48.064;20.624;2022-12-18T03:06:43;30.52;;;11.90;;
57822;SDS011;43650;48.064;20.624;2022-12-18T03:07:50;35.13;;;12.70;;
57822;SDS011;43650;48.064;20.624;2022-12-18T03:09:17;40.60;;;12.98;;
57822;SDS011;43650;48.064;20.624;2022-12-18T03:10:21;34.47;;;12.43;;
57822;SDS011;43650;48.064;20.624;2022-12-18T03:11:25;29.60;;;12.45;;
57822;SDS011;43650;48.064;20.624;2022-12-18T03:12:49;37.38;;;13.02;;
57822;SDS011;43650;48.064;20.624;2022-12-18T03:13:55;33.80;;;12.80;;
57822;SDS011;43650;48.064;20.624;2022-12-18T03:15:15;36.13;;;14.10;;
57822;SDS011;43650;48.064;20.624;2022-12-18T03:18:24;30.33;;;11.30;;
57822;SDS011;43650;48.064;20.624;2022-12-18T03:19:31;34.05;;;11.80;;
57822;SDS011;43650;48.064;20.624;2022-12-18T03:20:34;25.10;;;10.95;;
57822;SDS011;43650;48.064;20.624;2022-12-18T03:21:37;33.08;;;12.75;;
57822;SDS011;43650;48.064;20.624;2022-12-18T03:22:41;30.77;;;12.37;;
57822;SDS011;43650;48.064;20.624;2022-12-18T03:23:44;29.52;;;11.38;;
57822;SDS011;43650;48.064;20.624;2022-12-18T03:24:48;35.45;;;14.57;;
57822;SDS011;43650;48.064;20.624;2022-12-18T03:25:48;38.55;;;13.62;;
57822;SDS011;43650;48.064;20.624;2022-12-18T03:26:56;39.95;;;15.20;;
57822;SDS011;43650;48.064;20.624;2022-12-18T03:27:58;31.90;;;13.65;;
57822;SDS011;43650;48.064;20.624;2022-12-18T03:29:02;38.75;;;13.88;;
57822;SDS011;43650;48.064;20.624;2022-12-18T03:30:11;28.50;;;13.15;;
57822;SDS011;43650;48.064;20.624;2022-12-18T03:31:12;37.22;;;14.65;;
57822;SDS011;43650;48.064;20.624;2022-12-18T03:32:26;38.15;;;14.70;;
57822;SDS011;43650;48.064;20.624;2022-12-18T03:33:31;31.23;;;12.05;;
57822;SDS011;43650;48.064;20.624;2022-12-18T03:34:37;39.63;;;13.45;;
57822;SDS011;43650;48.064;20.624;2022-12-18T03:35:39;34.05;;;13.82;;
57822;SDS011;43650;48.064;20.624;2022-12-18T03:36:42;29.90;;;13.10;;
57822;SDS011;43650;48.064;20.624;2022-12-18T03:37:42;35.83;;;13.97;;
57822;SDS011;43650;48.064;20.624;2022-12-18T03:38:43;34.50;;;14.73;;
57822;SDS011;43650;48.064;20.624;2022-12-18T03:39:43;34.93;;;14.23;;
57822;SDS011;43650;48.064;20.624;2022-12-18T03:40:56;36.00;;;14.43;;
57822;SDS011;43650;48.064;20.624;2022-12-18T03:42:05;28.75;;;13.23;;
57822;SDS011;43650;48.064;20.624;2022-12-18T03:43:20;36.23;;;12.30;;
57822;SDS011;43650;48.064;20.624;2022-12-18T03:45:36;26.73;;;11.50;;
57822;SDS011;43650;48.064;20.624;2022-12-18T03:46:50;36.50;;;11.98;;
57822;SDS011;43650;48.064;20.624;2022-12-18T03:48:02;30.02;;;12.13;;
57822;SDS011;43650;48.064;20.624;2022-12-18T03:49:31;30.65;;;12.20;;
57822;SDS011;43650;48.064;20.624;2022-12-18T03:52:55;33.67;;;13.13;;
57822;SDS011;43650;48.064;20.624;2022-12-18T03:54:01;30.75;;;12.55;;
57822;SDS011;43650;48.064;20.624;2022-12-18T03:55:03;31.50;;;12.48;;
57822;SDS011;43650;48.064;20.624;2022-12-18T03:56:05;32.30;;;12.50;;
57822;SDS011;43650;48.064;20.624;2022-12-18T03:58:08;24.70;;;10.00;;
57822;SDS011;43650;48.064;20.624;2022-12-18T03:59:11;26.40;;;13.02;;
57822;SDS011;43650;48.064;20.624;2022-12-18T04:00:14;28.40;;;11.18;;
57822;SDS011;43650;48.064;20.624;2022-12-18T04:01:17;32.28;;;13.55;;
57822;SDS011;43650;48.064;20.624;2022-12-18T04:02:18;29.02;;;13.27;;
57822;SDS011;43650;48.064;20.624;2022-12-18T04:03:19;34.97;;;13.52;;
57822;SDS011;43650;48.064;20.624;2022-12-18T04:04:20;32.58;;;13.38;;
57822;SDS011;43650;48.064;20.624;2022-12-18T04:05:21;23.65;;;11.73;;
57822;SDS011;43650;48.064;20.624;2022-12-18T04:06:23;35.05;;;12.55;;
57822;SDS011;43650;48.064;20.624;2022-12-18T04:07:24;31.33;;;15.30;;
57822;SDS011;43650;48.064;20.624;2022-12-18T04:08:24;28.50;;;12.73;;
57822;SDS011;43650;48.064;20.624;2022-12-18T04:09:25;30.70;;;12.00;;
57822;SDS011;43650;48.064;20.624;2022-12-18T04:10:26;31.83;;;13.27;;
57822;SDS011;43650;48.064;20.624;2022-12-18T04:11:26;31.60;;;11.50;;
57822;SDS011;43650;48.064;20.624;2022-12-18T04:12:28;35.37;;;14.20;;
57822;SDS011;43650;48.064;20.624;2022-12-18T04:13:30;28.02;;;12.85;;
57822;SDS011;43650;48.064;20.624;2022-12-18T04:14:33;36.25;;;14.48;;
57822;SDS011;43650;48.064;20.624;2022-12-18T04:15:35;34.67;;;13.40;;
57822;SDS011;43650;48.064;20.624;2022-12-18T04:16:36;34.25;;;14.30;;
57822;SDS011;43650;48.064;20.624;2022-12-18T04:17:37;40.80;;;14.13;;
57822;SDS011;43650;48.064;20.624;2022-12-18T04:18:38;28.12;;;11.85;;
57822;SDS011;43650;48.064;20.624;2022-12-18T04:19:38;34.10;;;13.63;;
57822;SDS011;43650;48.064;20.624;2022-12-18T04:20:39;36.87;;;14.50;;
57822;SDS011;43650;48.064;20.624;2022-12-18T04:21:39;32.60;;;13.47;;
57822;SDS011;43650;48.064;20.624;2022-12-18T04:22:39;36.67;;;12.40;;
57822;SDS011;43650;48.064;20.624;2022-12-18T04:23:40;26.23;;;11.67;;
57822;SDS011;43650;48.064;20.624;2022-12-18T04:24:40;27.97;;;12.30;;
57822;SDS011;43650;48.064;20.624;2022-12-18T04:25:41;32.67;;;13.03;;
57822;SDS011;43650;48.064;20.624;2022-12-18T04:26:41;37.90;;;14.67;;
57822;SDS011;43650;48.064;20.624;2022-12-18T04:27:41;33.53;;;15.80;;
57822;SDS011;43650;48.064;20.624;2022-12-18T04:28:42;31.77;;;14.67;;
57822;SDS011;43650;48.064;20.624;2022-12-18T04:29:42;33.83;;;14.60;;
57822;SDS011;43650;48.064;20.624;2022-12-18T04:30:43;33.23;;;15.40;;
57822;SDS011;43650;48.064;20.624;2022-12-18T04:31:43;34.43;;;15.77;;
57822;SDS011;43650;48.064;20.624;2022-12-18T04:32:43;40.03;;;17.70;;
57822;SDS011;43650;48.064;20.624;2022-12-18T04:33:44;45.80;;;18.50;;
57822;SDS011;43650;48.064;20.624;2022-12-18T04:34:44;46.70;;;20.07;;
57822;SDS011;43650;48.064;20.624;2022-12-18T04:35:45;38.17;;;15.43;;
57822;SDS011;43650;48.064;20.624;2022-12-18T04:36:45;33.05;;;14.57;;
57822;SDS011;43650;48.064;20.624;2022-12-18T04:37:46;31.75;;;13.52;;
57822;SDS011;43650;48.064;20.624;2022-12-18T04:38:46;31.93;;;13.60;;
57822;SDS011;43650;48.064;20.624;2022-12-18T04:39:47;32.20;;;12.32;;
57822;SDS011;43650;48.064;20.624;2022-12-18T04:40:48;37.77;;;15.10;;
57822;SDS011;43650;48.064;20.624;2022-12-18T04:41:48;36.17;;;12.17;;
57822;SDS011;43650;48.064;20.624;2022-12-18T04:42:48;26.67;;;11.00;;
57822;SDS011;43650;48.064;20.624;2022-12-18T04:43:49;34.30;;;11.97;;
57822;SDS011;43650;48.064;20.624;2022-12-18T04:44:49;32.87;;;13.13;;
57822;SDS011;43650;48.064;20.624;2022-12-18T04:45:50;27.20;;;11.50;;
57822;SDS011;43650;48.064;20.624;2022-12-18T04:46:50;29.57;;;11.47;;
57822;SDS011;43650;48.064;20.624;2022-12-18T04:47:50;26.07;;;11.30;;
57822;SDS011;43650;48.064;20.624;2022-12-18T04:48:51;31.07;;;11.63;;
57822;SDS011;43650;48.064;20.624;2022-12-18T04:49:51;26.77;;;12.40;;
57822;SDS011;43650;48.064;20.624;2022-12-18T04:50:51;23.77;;;11.40;;
57822;SDS011;43650;48.064;20.624;2022-12-18T04:51:52;35.90;;;12.53;;
57822;SDS011;43650;48.064;20.624;2022-12-18T04:52:53;36.08;;;12.00;;
57822;SDS011;43650;48.064;20.624;2022-12-18T04:53:54;28.35;;;11.73;;
57822;SDS011;43650;48.064;20.624;2022-12-18T04:54:54;30.20;;;11.20;;
57822;SDS011;43650;48.064;20.624;2022-12-18T04:56:05;28.03;;;11.67;;
57822;SDS011;43650;48.064;20.624;2022-12-18T04:57:06;27.02;;;12.37;;
57822;SDS011;43650;48.064;20.624;2022-12-18T04:58:06;25.67;;;12.07;;
57822;SDS011;43650;48.064;20.624;2022-12-18T04:59:07;31.80;;;12.90;;
57822;SDS011;43650;48.064;20.624;2022-12-18T05:00:07;28.47;;;12.40;;
57822;SDS011;43650;48.064;20.624;2022-12-18T05:01:09;23.55;;;11.82;;
57822;SDS011;43650;48.064;20.624;2022-12-18T05:02:12;33.63;;;11.80;;
57822;SDS011;43650;48.064;20.624;2022-12-18T05:03:13;32.70;;;11.80;;
57822;SDS011;43650;48.064;20.624;2022-12-18T05:04:13;25.67;;;10.93;;
57822;SDS011;43650;48.064;20.624;2022-12-18T05:05:14;28.30;;;13.23;;
57822;SDS011;43650;48.064;20.624;2022-12-18T05:06:14;30.30;;;11.52;;
57822;SDS011;43650;48.064;20.624;2022-12-18T05:07:15;28.93;;;12.33;;
57822;SDS011;43650;48.064;20.624;2022-12-18T05:08:15;28.77;;;12.33;;
57822;SDS011;43650;48.064;20.624;2022-12-18T05:09:15;27.63;;;12.17;;
57822;SDS011;43650;48.064;20.624;2022-12-18T05:10:16;33.97;;;11.90;;
57822;SDS011;43650;48.064;20.624;2022-12-18T05:11:16;31.03;;;11.53;;
57822;SDS011;43650;48.064;20.624;2022-12-18T05:12:17;25.90;;;10.65;;
57822;SDS011;43650;48.064;20.624;2022-12-18T05:13:18;24.87;;;10.73;;
57822;SDS011;43650;48.064;20.624;2022-12-18T05:14:18;29.17;;;13.07;;
57822;SDS011;43650;48.064;20.624;2022-12-18T05:15:19;32.80;;;13.32;;
57822;SDS011;43650;48.064;20.624;2022-12-18T05:16:19;26.77;;;10.20;;
57822;SDS011;43650;48.064;20.624;2022-12-18T05:17:19;22.37;;;10.37;;
57822;SDS011;43650;48.064;20.624;2022-12-18T05:18:20;32.10;;;12.47;;
57822;SDS011;43650;48.064;20.624;2022-12-18T05:20:22;35.03;;;10.13;;
57822;SDS011;43650;48.064;20.624;2022-12-18T05:21:23;33.47;;;11.10;;
57822;SDS011;43650;48.064;20.624;2022-12-18T05:22:23;29.73;;;11.60;;
57822;SDS011;43650;48.064;20.624;2022-12-18T05:23:25;25.48;;;10.32;;
57822;SDS011;43650;48.064;20.624;2022-12-18T05:24:25;26.02;;;12.85;;
57822;SDS011;43650;48.064;20.624;2022-12-18T05:25:26;31.57;;;14.60;;
57822;SDS011;43650;48.064;20.624;2022-12-18T05:26:26;26.73;;;12.07;;
57822;SDS011;43650;48.064;20.624;2022-12-18T05:27:27;29.63;;;10.67;;
57822;SDS011;43650;48.064;20.624;2022-12-18T05:28:28;38.17;;;12.63;;
57822;SDS011;43650;48.064;20.624;2022-12-18T05:29:29;25.08;;;12.27;;
57822;SDS011;43650;48.064;20.624;2022-12-18T05:30:29;26.17;;;10.23;;
57822;SDS011;43650;48.064;20.624;2022-12-18T05:31:30;25.23;;;11.17;;
57822;SDS011;43650;48.064;20.624;2022-12-18T05:32:30;34.33;;;12.00;;
57822;SDS011;43650;48.064;20.624;2022-12-18T05:33:31;29.33;;;12.57;;
57822;SDS011;43650;48.064;20.624;2022-12-18T05:34:33;30.10;;;12.20;;
57822;SDS011;43650;48.064;20.624;2022-12-18T05:35:33;30.23;;;11.60;;
57822;SDS011;43650;48.064;20.624;2022-12-18T05:36:33;26.57;;;10.20;;
57822;SDS011;43650;48.064;20.624;2022-12-18T05:37:34;31.40;;;10.40;;
57822;SDS011;43650;48.064;20.624;2022-12-18T05:38:36;30.65;;;11.12;;
57822;SDS011;43650;48.064;20.624;2022-12-18T05:39:38;26.73;;;10.93;;
57822;SDS011;43650;48.064;20.624;2022-12-18T05:40:41;28.77;;;12.03;;
57822;SDS011;43650;48.064;20.624;2022-12-18T05:41:42;34.17;;;13.25;;
57822;SDS011;43650;48.064;20.624;2022-12-18T05:42:42;33.97;;;13.97;;
57822;SDS011;43650;48.064;20.624;2022-12-18T05:43:43;29.87;;;13.63;;
57822;SDS011;43650;48.064;20.624;2022-12-18T05:44:43;38.17;;;15.43;;
57822;SDS011;43650;48.064;20.624;2022-12-18T05:45:44;37.50;;;14.68;;
57822;SDS011;43650;48.064;20.624;2022-12-18T05:46:45;34.38;;;15.82;;
57822;SDS011;43650;48.064;20.624;2022-12-18T05:47:45;43.87;;;18.50;;
57822;SDS011;43650;48.064;20.624;2022-12-18T05:48:46;40.87;;;17.60;;
57822;SDS011;43650;48.064;20.624;2022-12-18T05:49:46;57.10;;;21.50;;
57822;SDS011;43650;48.064;20.624;2022-12-18T05:50:47;42.07;;;18.90;;
57822;SDS011;43650;48.064;20.624;2022-12-18T05:51:48;45.53;;;19.05;;
57822;SDS011;43650;48.064;20.624;2022-12-18T05:52:49;49.97;;;20.07;;
57822;SDS011;43650;48.064;20.624;2022-12-18T05:53:49;47.13;;;20.77;;
57822;SDS011;43650;48.064;20.624;2022-12-18T05:54:50;55.03;;;26.43;;
57822;SDS011;43650;48.064;20.624;2022-12-18T05:55:50;55.47;;;25.83;;
57822;SDS011;43650;48.064;20.624;2022-12-18T05:56:50;63.00;;;26.47;;
57822;SDS011;43650;48.064;20.624;2022-12-18T05:57:51;61.73;;;28.17;;
57822;SDS011;43650;48.064;20.624;2022-12-18T05:58:52;53.97;;;24.10;;
57822;SDS011;43650;48.064;20.624;2022-12-18T06:00:53;46.53;;;20.52;;
57822;SDS011;43650;48.064;20.624;2022-12-18T06:01:54;59.88;;;27.02;;
57822;SDS011;43650;48.064;20.624;2022-12-18T06:02:55;59.73;;;26.00;;
57822;SDS011;43650;48.064;20.624;2022-12-18T06:03:55;58.50;;;26.83;;
57822;SDS011;43650;48.064;20.624;2022-12-18T06:04:56;52.20;;;26.73;;
57822;SDS011;43650;48.064;20.624;2022-12-18T06:05:56;59.63;;;25.50;;
57822;SDS011;43650;48.064;20.624;2022-12-18T06:06:56;53.47;;;23.30;;
57822;SDS011;43650;48.064;20.624;2022-12-18T06:07:57;45.80;;;22.50;;
57822;SDS011;43650;48.064;20.624;2022-12-18T06:08:58;49.43;;;20.97;;
57822;SDS011;43650;48.064;20.624;2022-12-18T06:09:58;52.90;;;23.63;;
57822;SDS011;43650;48.064;20.624;2022-12-18T06:10:58;59.13;;;26.33;;
57822;SDS011;43650;48.064;20.624;2022-12-18T06:11:59;75.10;;;29.37;;
57822;SDS011;43650;48.064;20.624;2022-12-18T06:12:59;50.93;;;23.30;;
57822;SDS011;43650;48.064;20.624;2022-12-18T06:14:00;53.47;;;23.58;;
57822;SDS011;43650;48.064;20.624;2022-12-18T06:15:01;46.67;;;20.27;;
57822;SDS011;43650;48.064;20.624;2022-12-18T06:16:03;39.57;;;18.37;;
57822;SDS011;43650;48.064;20.624;2022-12-18T06:17:04;53.58;;;25.95;;
57822;SDS011;43650;48.064;20.624;2022-12-18T06:18:05;81.40;;;37.60;;
57822;SDS011;43650;48.064;20.624;2022-12-18T06:19:05;125.73;;;52.93;;
57822;SDS011;43650;48.064;20.624;2022-12-18T06:20:06;117.63;;;52.47;;
57822;SDS011;43650;48.064;20.624;2022-12-18T06:21:07;86.03;;;36.03;;
57822;SDS011;43650;48.064;20.624;2022-12-18T06:22:07;165.07;;;65.07;;
57822;SDS011;43650;48.064;20.624;2022-12-18T06:23:07;230.87;;;89.67;;
57822;SDS011;43650;48.064;20.624;2022-12-18T06:25:10;224.35;;;90.87;;
57822;SDS011;43650;48.064;20.624;2022-12-18T06:26:11;125.30;;;53.50;;
57822;SDS011;43650;48.064;20.624;2022-12-18T06:27:12;91.93;;;41.03;;